sensor_id;sensor_type;location;lat;lon;timestamp;P1;durP1;ratioP1;P2;durP2;ratioP2
68700;SDS011;55682;51.114;5.882;2023-09-19T00:00:36;2.72;;;2.22;;
68700;SDS011;55682;51.114;5.882;2023-09-19T00:03:02;2.82;;;2.28;;
68700;SDS011;55682;51.114;5.882;2023-09-19T00:05:33;2.65;;;2.15;;
68700;SDS011;55682;51.114;5.882;2023-09-19T00:08:00;2.71;;;2.20;;
68700;SDS011;55682;51.114;5.882;2023-09-19T00:10:30;2.79;;;2.23;;
68700;SDS011;55682;51.114;5.882;2023-09-19T00:13:00;2.63;;;2.06;;
68700;SDS011;55682;51.114;5.882;2023-09-19T00:15:35;3.22;;;2.50;;
68700;SDS011;55682;51.114;5.882;2023-09-19T00:18:03;2.92;;;2.27;;
68700;SDS011;55682;51.114;5.882;2023-09-19T00:20:31;2.97;;;2.25;;
68700;SDS011;55682;51.114;5.882;2023-09-19T00:23:00;3.31;;;2.50;;
68700;SDS011;55682;51.114;5.882;2023-09-19T00:25:31;3.35;;;2.55;;
68700;SDS011;55682;51.114;5.882;2023-09-19T00:28:00;3.12;;;2.35;;
68700;SDS011;55682;51.114;5.882;2023-09-19T00:30:26;3.16;;;2.41;;
68700;SDS011;55682;51.114;5.882;2023-09-19T00:32:52;3.30;;;2.52;;
68700;SDS011;55682;51.114;5.882;2023-09-19T00:35:18;3.16;;;2.42;;
68700;SDS011;55682;51.114;5.882;2023-09-19T00:37:44;2.96;;;2.32;;
68700;SDS011;55682;51.114;5.882;2023-09-19T00:40:10;2.54;;;2.05;;
68700;SDS011;55682;51.114;5.882;2023-09-19T00:42:40;2.61;;;2.09;;
68700;SDS011;55682;51.114;5.882;2023-09-19T00:45:06;2.53;;;2.01;;
68700;SDS011;55682;51.114;5.882;2023-09-19T00:47:36;2.97;;;2.31;;
68700;SDS011;55682;51.114;5.882;2023-09-19T00:50:03;3.21;;;2.46;;
68700;SDS011;55682;51.114;5.882;2023-09-19T00:52:33;3.07;;;2.39;;
68700;SDS011;55682;51.114;5.882;2023-09-19T00:55:02;3.04;;;2.34;;
68700;SDS011;55682;51.114;5.882;2023-09-19T00:57:29;3.36;;;2.58;;
68700;SDS011;55682;51.114;5.882;2023-09-19T00:59:58;2.82;;;2.19;;
68700;SDS011;55682;51.114;5.882;2023-09-19T01:02:25;2.80;;;2.14;;
68700;SDS011;55682;51.114;5.882;2023-09-19T01:04:56;3.09;;;2.38;;
68700;SDS011;55682;51.114;5.882;2023-09-19T01:07:21;2.98;;;2.35;;
68700;SDS011;55682;51.114;5.882;2023-09-19T01:09:49;3.14;;;2.47;;
68700;SDS011;55682;51.114;5.882;2023-09-19T01:12:16;3.27;;;2.55;;
68700;SDS011;55682;51.114;5.882;2023-09-19T01:14:55;2.92;;;2.27;;
68700;SDS011;55682;51.114;5.882;2023-09-19T01:17:32;2.91;;;2.25;;
68700;SDS011;55682;51.114;5.882;2023-09-19T01:23:14;3.17;;;2.45;;
68700;SDS011;55682;51.114;5.882;2023-09-19T01:28:43;2.76;;;2.20;;
68700;SDS011;55682;51.114;5.882;2023-09-19T01:31:19;2.62;;;2.08;;
68700;SDS011;55682;51.114;5.882;2023-09-19T01:33:58;3.05;;;2.40;;
68700;SDS011;55682;51.114;5.882;2023-09-19T01:36:26;2.71;;;2.12;;
68700;SDS011;55682;51.114;5.882;2023-09-19T01:38:54;2.59;;;2.05;;
68700;SDS011;55682;51.114;5.882;2023-09-19T01:41:26;2.88;;;2.28;;
68700;SDS011;55682;51.114;5.882;2023-09-19T01:44:06;2.98;;;2.34;;
68700;SDS011;55682;51.114;5.882;2023-09-19T01:46:40;2.85;;;2.24;;
68700;SDS011;55682;51.114;5.882;2023-09-19T01:49:15;3.01;;;2.37;;
68700;SDS011;55682;51.114;5.882;2023-09-19T01:54:26;2.87;;;2.28;;
68700;SDS011;55682;51.114;5.882;2023-09-19T01:57:45;2.91;;;2.30;;
68700;SDS011;55682;51.114;5.882;2023-09-19T01:59:50;2.89;;;2.28;;
68700;SDS011;55682;51.114;5.882;2023-09-19T02:02:24;2.61;;;2.05;;
68700;SDS011;55682;51.114;5.882;2023-09-19T02:04:52;2.53;;;2.01;;
68700;SDS011;55682;51.114;5.882;2023-09-19T02:07:20;2.70;;;2.16;;
68700;SDS011;55682;51.114;5.882;2023-09-19T02:09:45;2.73;;;2.18;;
68700;SDS011;55682;51.114;5.882;2023-09-19T02:12:13;2.50;;;2.01;;
68700;SDS011;55682;51.114;5.882;2023-09-19T02:14:40;2.87;;;2.31;;
68700;SDS011;55682;51.114;5.882;2023-09-19T02:17:06;2.53;;;2.05;;
68700;SDS011;55682;51.114;5.882;2023-09-19T02:19:32;2.48;;;1.99;;
68700;SDS011;55682;51.114;5.882;2023-09-19T02:21:59;2.52;;;2.02;;
68700;SDS011;55682;51.114;5.882;2023-09-19T02:24:28;2.31;;;1.86;;
68700;SDS011;55682;51.114;5.882;2023-09-19T02:26:54;2.52;;;2.04;;
68700;SDS011;55682;51.114;5.882;2023-09-19T02:29:21;2.59;;;2.12;;
68700;SDS011;55682;51.114;5.882;2023-09-19T02:31:47;2.85;;;2.31;;
68700;SDS011;55682;51.114;5.882;2023-09-19T02:34:14;3.19;;;2.56;;
68700;SDS011;55682;51.114;5.882;2023-09-19T02:36:42;2.70;;;2.21;;
68700;SDS011;55682;51.114;5.882;2023-09-19T02:39:09;2.65;;;2.23;;
68700;SDS011;55682;51.114;5.882;2023-09-19T02:41:36;2.69;;;2.24;;
68700;SDS011;55682;51.114;5.882;2023-09-19T02:44:02;2.87;;;2.39;;
68700;SDS011;55682;51.114;5.882;2023-09-19T02:46:28;2.69;;;2.32;;
68700;SDS011;55682;51.114;5.882;2023-09-19T02:48:54;2.43;;;2.09;;
68700;SDS011;55682;51.114;5.882;2023-09-19T02:51:20;2.61;;;2.20;;
68700;SDS011;55682;51.114;5.882;2023-09-19T02:53:46;2.49;;;2.09;;
68700;SDS011;55682;51.114;5.882;2023-09-19T02:56:12;2.66;;;2.25;;
68700;SDS011;55682;51.114;5.882;2023-09-19T02:58:38;2.59;;;2.18;;
68700;SDS011;55682;51.114;5.882;2023-09-19T03:01:08;2.36;;;2.02;;
68700;SDS011;55682;51.114;5.882;2023-09-19T03:03:37;2.59;;;2.20;;
68700;SDS011;55682;51.114;5.882;2023-09-19T03:06:05;2.70;;;2.21;;
68700;SDS011;55682;51.114;5.882;2023-09-19T03:08:31;3.05;;;2.41;;
68700;SDS011;55682;51.114;5.882;2023-09-19T03:10:58;2.64;;;2.11;;
68700;SDS011;55682;51.114;5.882;2023-09-19T03:13:26;2.99;;;2.36;;
68700;SDS011;55682;51.114;5.882;2023-09-19T03:15:54;2.87;;;2.30;;
68700;SDS011;55682;51.114;5.882;2023-09-19T03:18:24;2.68;;;2.19;;
68700;SDS011;55682;51.114;5.882;2023-09-19T03:20:52;2.49;;;2.05;;
68700;SDS011;55682;51.114;5.882;2023-09-19T03:23:21;2.68;;;2.19;;
68700;SDS011;55682;51.114;5.882;2023-09-19T03:25:47;2.59;;;2.16;;
68700;SDS011;55682;51.114;5.882;2023-09-19T03:28:13;2.74;;;2.23;;
68700;SDS011;55682;51.114;5.882;2023-09-19T03:30:41;2.89;;;2.31;;
68700;SDS011;55682;51.114;5.882;2023-09-19T03:33:07;2.88;;;2.29;;
68700;SDS011;55682;51.114;5.882;2023-09-19T03:35:34;3.16;;;2.55;;
68700;SDS011;55682;51.114;5.882;2023-09-19T03:38:00;2.71;;;2.21;;
68700;SDS011;55682;51.114;5.882;2023-09-19T03:40:26;3.09;;;2.46;;
68700;SDS011;55682;51.114;5.882;2023-09-19T03:42:52;2.95;;;2.33;;
68700;SDS011;55682;51.114;5.882;2023-09-19T03:45:18;2.83;;;2.29;;
68700;SDS011;55682;51.114;5.882;2023-09-19T03:47:47;2.91;;;2.33;;
68700;SDS011;55682;51.114;5.882;2023-09-19T03:50:14;3.39;;;2.64;;
68700;SDS011;55682;51.114;5.882;2023-09-19T03:52:44;3.39;;;2.57;;
68700;SDS011;55682;51.114;5.882;2023-09-19T03:55:09;3.41;;;2.58;;
68700;SDS011;55682;51.114;5.882;2023-09-19T03:57:37;3.10;;;2.35;;
68700;SDS011;55682;51.114;5.882;2023-09-19T04:00:03;3.11;;;2.39;;
68700;SDS011;55682;51.114;5.882;2023-09-19T04:02:40;2.92;;;2.30;;
68700;SDS011;55682;51.114;5.882;2023-09-19T04:05:06;2.73;;;2.10;;
68700;SDS011;55682;51.114;5.882;2023-09-19T04:07:32;3.76;;;2.80;;
68700;SDS011;55682;51.114;5.882;2023-09-19T04:09:59;3.27;;;2.45;;
68700;SDS011;55682;51.114;5.882;2023-09-19T04:12:26;3.57;;;2.69;;
68700;SDS011;55682;51.114;5.882;2023-09-19T04:14:52;3.40;;;2.63;;
68700;SDS011;55682;51.114;5.882;2023-09-19T04:17:17;3.73;;;2.84;;
68700;SDS011;55682;51.114;5.882;2023-09-19T04:19:43;3.50;;;2.60;;
68700;SDS011;55682;51.114;5.882;2023-09-19T04:22:10;3.64;;;2.73;;
68700;SDS011;55682;51.114;5.882;2023-09-19T04:24:37;3.60;;;2.73;;
68700;SDS011;55682;51.114;5.882;2023-09-19T04:27:03;3.81;;;2.92;;
68700;SDS011;55682;51.114;5.882;2023-09-19T04:29:29;3.42;;;2.63;;
68700;SDS011;55682;51.114;5.882;2023-09-19T04:31:56;3.40;;;2.61;;
68700;SDS011;55682;51.114;5.882;2023-09-19T04:34:22;3.35;;;2.59;;
68700;SDS011;55682;51.114;5.882;2023-09-19T04:36:49;3.78;;;2.92;;
68700;SDS011;55682;51.114;5.882;2023-09-19T04:39:15;2.97;;;2.32;;
68700;SDS011;55682;51.114;5.882;2023-09-19T04:41:42;3.07;;;2.37;;
68700;SDS011;55682;51.114;5.882;2023-09-19T04:44:07;2.91;;;2.26;;
68700;SDS011;55682;51.114;5.882;2023-09-19T04:46:34;3.04;;;2.36;;
68700;SDS011;55682;51.114;5.882;2023-09-19T04:49:00;3.17;;;2.41;;
68700;SDS011;55682;51.114;5.882;2023-09-19T04:51:25;3.46;;;2.61;;
68700;SDS011;55682;51.114;5.882;2023-09-19T04:53:54;3.43;;;2.67;;
68700;SDS011;55682;51.114;5.882;2023-09-19T04:56:20;3.16;;;2.47;;
68700;SDS011;55682;51.114;5.882;2023-09-19T04:58:46;3.85;;;2.95;;
68700;SDS011;55682;51.114;5.882;2023-09-19T05:01:12;3.27;;;2.53;;
68700;SDS011;55682;51.114;5.882;2023-09-19T05:03:40;3.77;;;2.85;;
68700;SDS011;55682;51.114;5.882;2023-09-19T05:06:05;3.46;;;2.65;;
68700;SDS011;55682;51.114;5.882;2023-09-19T05:08:31;3.23;;;2.51;;
68700;SDS011;55682;51.114;5.882;2023-09-19T05:10:57;3.33;;;2.51;;
68700;SDS011;55682;51.114;5.882;2023-09-19T05:13:22;3.44;;;2.57;;
68700;SDS011;55682;51.114;5.882;2023-09-19T05:15:52;3.05;;;2.34;;
68700;SDS011;55682;51.114;5.882;2023-09-19T05:18:18;3.52;;;2.65;;
68700;SDS011;55682;51.114;5.882;2023-09-19T05:20:43;3.62;;;2.70;;
68700;SDS011;55682;51.114;5.882;2023-09-19T05:23:09;3.44;;;2.61;;
68700;SDS011;55682;51.114;5.882;2023-09-19T05:25:37;3.32;;;2.50;;
68700;SDS011;55682;51.114;5.882;2023-09-19T05:28:08;3.57;;;2.65;;
68700;SDS011;55682;51.114;5.882;2023-09-19T05:30:35;3.31;;;2.50;;
68700;SDS011;55682;51.114;5.882;2023-09-19T05:33:02;3.36;;;2.55;;
68700;SDS011;55682;51.114;5.882;2023-09-19T05:35:29;2.91;;;2.21;;
68700;SDS011;55682;51.114;5.882;2023-09-19T05:37:56;3.25;;;2.43;;
68700;SDS011;55682;51.114;5.882;2023-09-19T05:40:23;3.46;;;2.53;;
68700;SDS011;55682;51.114;5.882;2023-09-19T05:42:50;3.62;;;2.65;;
68700;SDS011;55682;51.114;5.882;2023-09-19T05:45:16;3.17;;;2.37;;
68700;SDS011;55682;51.114;5.882;2023-09-19T05:47:50;3.55;;;2.69;;
68700;SDS011;55682;51.114;5.882;2023-09-19T05:50:18;3.34;;;2.55;;
68700;SDS011;55682;51.114;5.882;2023-09-19T05:52:50;3.29;;;2.46;;
68700;SDS011;55682;51.114;5.882;2023-09-19T05:55:17;3.54;;;2.62;;
68700;SDS011;55682;51.114;5.882;2023-09-19T05:57:43;3.72;;;2.70;;
68700;SDS011;55682;51.114;5.882;2023-09-19T06:00:15;3.73;;;2.73;;
68700;SDS011;55682;51.114;5.882;2023-09-19T06:02:43;3.77;;;2.74;;
68700;SDS011;55682;51.114;5.882;2023-09-19T06:05:10;3.38;;;2.48;;
68700;SDS011;55682;51.114;5.882;2023-09-19T06:07:36;3.16;;;2.30;;
68700;SDS011;55682;51.114;5.882;2023-09-19T06:10:05;3.92;;;2.86;;
68700;SDS011;55682;51.114;5.882;2023-09-19T06:12:32;3.51;;;2.59;;
68700;SDS011;55682;51.114;5.882;2023-09-19T06:15:03;3.50;;;2.62;;
68700;SDS011;55682;51.114;5.882;2023-09-19T06:17:34;3.52;;;2.69;;
68700;SDS011;55682;51.114;5.882;2023-09-19T06:20:05;3.06;;;2.37;;
68700;SDS011;55682;51.114;5.882;2023-09-19T06:22:38;3.25;;;2.50;;
68700;SDS011;55682;51.114;5.882;2023-09-19T06:25:04;3.31;;;2.52;;
68700;SDS011;55682;51.114;5.882;2023-09-19T06:27:30;3.05;;;2.34;;
68700;SDS011;55682;51.114;5.882;2023-09-19T06:29:56;2.80;;;2.16;;
68700;SDS011;55682;51.114;5.882;2023-09-19T06:32:27;2.70;;;2.07;;
68700;SDS011;55682;51.114;5.882;2023-09-19T06:34:54;2.95;;;2.27;;
68700;SDS011;55682;51.114;5.882;2023-09-19T06:37:20;2.89;;;2.27;;
68700;SDS011;55682;51.114;5.882;2023-09-19T06:39:47;3.23;;;2.55;;
68700;SDS011;55682;51.114;5.882;2023-09-19T06:42:14;2.81;;;2.25;;
68700;SDS011;55682;51.114;5.882;2023-09-19T06:44:42;3.15;;;2.52;;
68700;SDS011;55682;51.114;5.882;2023-09-19T06:47:08;3.00;;;2.42;;
68700;SDS011;55682;51.114;5.882;2023-09-19T06:49:35;3.26;;;2.58;;
68700;SDS011;55682;51.114;5.882;2023-09-19T06:52:01;2.99;;;2.36;;
68700;SDS011;55682;51.114;5.882;2023-09-19T06:54:28;2.83;;;2.24;;
68700;SDS011;55682;51.114;5.882;2023-09-19T06:56:56;2.82;;;2.22;;
68700;SDS011;55682;51.114;5.882;2023-09-19T06:59:25;2.96;;;2.32;;
68700;SDS011;55682;51.114;5.882;2023-09-19T07:01:51;3.35;;;2.59;;
68700;SDS011;55682;51.114;5.882;2023-09-19T07:04:17;3.28;;;2.53;;
68700;SDS011;55682;51.114;5.882;2023-09-19T07:06:48;3.30;;;2.50;;
68700;SDS011;55682;51.114;5.882;2023-09-19T07:09:15;3.09;;;2.36;;
68700;SDS011;55682;51.114;5.882;2023-09-19T07:11:41;3.07;;;2.35;;
68700;SDS011;55682;51.114;5.882;2023-09-19T07:14:08;3.14;;;2.42;;
68700;SDS011;55682;51.114;5.882;2023-09-19T07:16:37;2.94;;;2.27;;
68700;SDS011;55682;51.114;5.882;2023-09-19T07:19:04;2.61;;;2.03;;
68700;SDS011;55682;51.114;5.882;2023-09-19T07:21:30;2.97;;;2.30;;
68700;SDS011;55682;51.114;5.882;2023-09-19T07:23:59;3.14;;;2.45;;
68700;SDS011;55682;51.114;5.882;2023-09-19T07:26:26;2.86;;;2.22;;
68700;SDS011;55682;51.114;5.882;2023-09-19T07:28:53;3.29;;;2.58;;
68700;SDS011;55682;51.114;5.882;2023-09-19T07:31:19;3.13;;;2.44;;
68700;SDS011;55682;51.114;5.882;2023-09-19T07:33:48;3.28;;;2.51;;
68700;SDS011;55682;51.114;5.882;2023-09-19T07:36:14;3.43;;;2.56;;
68700;SDS011;55682;51.114;5.882;2023-09-19T07:38:40;3.05;;;2.30;;
68700;SDS011;55682;51.114;5.882;2023-09-19T07:41:07;2.58;;;1.95;;
68700;SDS011;55682;51.114;5.882;2023-09-19T07:43:34;3.15;;;2.40;;
68700;SDS011;55682;51.114;5.882;2023-09-19T07:46:07;2.79;;;2.15;;
68700;SDS011;55682;51.114;5.882;2023-09-19T07:48:37;3.48;;;2.65;;
68700;SDS011;55682;51.114;5.882;2023-09-19T07:51:04;2.85;;;2.19;;
68700;SDS011;55682;51.114;5.882;2023-09-19T07:53:30;3.13;;;2.37;;
68700;SDS011;55682;51.114;5.882;2023-09-19T07:56:02;3.25;;;2.46;;
68700;SDS011;55682;51.114;5.882;2023-09-19T07:58:29;2.96;;;2.29;;
68700;SDS011;55682;51.114;5.882;2023-09-19T08:00:54;2.56;;;2.00;;
68700;SDS011;55682;51.114;5.882;2023-09-19T08:03:20;2.71;;;2.12;;
68700;SDS011;55682;51.114;5.882;2023-09-19T08:05:45;3.02;;;2.30;;
68700;SDS011;55682;51.114;5.882;2023-09-19T08:08:13;3.23;;;2.44;;
68700;SDS011;55682;51.114;5.882;2023-09-19T08:10:39;3.55;;;2.65;;
68700;SDS011;55682;51.114;5.882;2023-09-19T08:13:07;3.17;;;2.39;;
68700;SDS011;55682;51.114;5.882;2023-09-19T08:15:42;2.98;;;2.24;;
68700;SDS011;55682;51.114;5.882;2023-09-19T08:18:09;3.38;;;2.52;;
68700;SDS011;55682;51.114;5.882;2023-09-19T08:20:37;3.03;;;2.24;;
68700;SDS011;55682;51.114;5.882;2023-09-19T08:23:03;3.23;;;2.41;;
68700;SDS011;55682;51.114;5.882;2023-09-19T08:25:29;2.72;;;2.02;;
68700;SDS011;55682;51.114;5.882;2023-09-19T08:27:55;2.65;;;1.99;;
68700;SDS011;55682;51.114;5.882;2023-09-19T08:30:23;2.17;;;1.67;;
68700;SDS011;55682;51.114;5.882;2023-09-19T08:32:50;2.72;;;2.10;;
68700;SDS011;55682;51.114;5.882;2023-09-19T08:35:15;2.49;;;1.93;;
68700;SDS011;55682;51.114;5.882;2023-09-19T08:37:42;2.67;;;2.03;;
68700;SDS011;55682;51.114;5.882;2023-09-19T08:40:10;2.80;;;2.15;;
68700;SDS011;55682;51.114;5.882;2023-09-19T08:42:50;2.66;;;2.06;;
68700;SDS011;55682;51.114;5.882;2023-09-19T08:45:19;2.71;;;2.12;;
68700;SDS011;55682;51.114;5.882;2023-09-19T08:50:51;2.54;;;2.02;;
68700;SDS011;55682;51.114;5.882;2023-09-19T08:53:27;2.72;;;2.18;;
68700;SDS011;55682;51.114;5.882;2023-09-19T08:56:03;2.54;;;2.07;;
68700;SDS011;55682;51.114;5.882;2023-09-19T08:58:31;2.73;;;2.19;;
68700;SDS011;55682;51.114;5.882;2023-09-19T09:01:06;2.62;;;2.04;;
68700;SDS011;55682;51.114;5.882;2023-09-19T09:03:35;2.98;;;2.28;;
68700;SDS011;55682;51.114;5.882;2023-09-19T09:06:04;2.68;;;2.08;;
68700;SDS011;55682;51.114;5.882;2023-09-19T09:08:36;2.52;;;1.97;;
68700;SDS011;55682;51.114;5.882;2023-09-19T09:11:01;3.06;;;2.40;;
68700;SDS011;55682;51.114;5.882;2023-09-19T09:13:27;2.74;;;2.15;;
68700;SDS011;55682;51.114;5.882;2023-09-19T09:15:54;2.43;;;1.91;;
68700;SDS011;55682;51.114;5.882;2023-09-19T09:18:19;2.76;;;2.18;;
68700;SDS011;55682;51.114;5.882;2023-09-19T09:20:45;2.43;;;1.95;;
68700;SDS011;55682;51.114;5.882;2023-09-19T09:23:12;2.27;;;1.84;;
68700;SDS011;55682;51.114;5.882;2023-09-19T09:28:21;2.84;;;2.25;;
68700;SDS011;55682;51.114;5.882;2023-09-19T09:30:51;2.59;;;2.02;;
68700;SDS011;55682;51.114;5.882;2023-09-19T09:33:17;2.55;;;1.99;;
68700;SDS011;55682;51.114;5.882;2023-09-19T09:35:54;3.08;;;2.38;;
68700;SDS011;55682;51.114;5.882;2023-09-19T09:38:22;2.44;;;1.89;;
68700;SDS011;55682;51.114;5.882;2023-09-19T09:40:56;2.96;;;2.31;;
68700;SDS011;55682;51.114;5.882;2023-09-19T09:43:38;2.68;;;2.11;;
68700;SDS011;55682;51.114;5.882;2023-09-19T09:46:07;2.72;;;2.14;;
68700;SDS011;55682;51.114;5.882;2023-09-19T09:49:07;2.12;;;1.68;;
68700;SDS011;55682;51.114;5.882;2023-09-19T09:51:50;2.21;;;1.79;;
68700;SDS011;55682;51.114;5.882;2023-09-19T09:54:25;2.20;;;1.79;;
68700;SDS011;55682;51.114;5.882;2023-09-19T09:56:59;2.24;;;1.81;;
68700;SDS011;55682;51.114;5.882;2023-09-19T10:02:27;2.99;;;2.40;;
68700;SDS011;55682;51.114;5.882;2023-09-19T10:04:58;2.17;;;1.74;;
68700;SDS011;55682;51.114;5.882;2023-09-19T10:07:35;2.81;;;2.23;;
68700;SDS011;55682;51.114;5.882;2023-09-19T10:10:06;2.59;;;2.09;;
68700;SDS011;55682;51.114;5.882;2023-09-19T10:12:44;2.50;;;2.01;;
68700;SDS011;55682;51.114;5.882;2023-09-19T10:15:13;2.32;;;1.88;;
68700;SDS011;55682;51.114;5.882;2023-09-19T10:17:45;2.33;;;1.91;;
68700;SDS011;55682;51.114;5.882;2023-09-19T10:20:16;2.36;;;1.93;;
68700;SDS011;55682;51.114;5.882;2023-09-19T10:23:08;2.32;;;1.89;;
68700;SDS011;55682;51.114;5.882;2023-09-19T10:25:37;2.57;;;2.10;;
68700;SDS011;55682;51.114;5.882;2023-09-19T10:28:11;2.85;;;2.38;;
68700;SDS011;55682;51.114;5.882;2023-09-19T10:33:13;1.90;;;1.64;;
68700;SDS011;55682;51.114;5.882;2023-09-19T10:35:47;2.09;;;1.81;;
68700;SDS011;55682;51.114;5.882;2023-09-19T10:38:19;2.29;;;1.94;;
68700;SDS011;55682;51.114;5.882;2023-09-19T10:40:50;2.41;;;2.07;;
68700;SDS011;55682;51.114;5.882;2023-09-19T10:43:18;2.09;;;1.82;;
68700;SDS011;55682;51.114;5.882;2023-09-19T10:45:46;2.32;;;2.01;;
68700;SDS011;55682;51.114;5.882;2023-09-19T10:48:19;2.18;;;1.88;;
68700;SDS011;55682;51.114;5.882;2023-09-19T10:53:32;2.18;;;1.89;;
68700;SDS011;55682;51.114;5.882;2023-09-19T10:56:18;1.84;;;1.59;;
68700;SDS011;55682;51.114;5.882;2023-09-19T10:58:53;1.98;;;1.73;;
68700;SDS011;55682;51.114;5.882;2023-09-19T11:01:51;2.30;;;2.00;;
68700;SDS011;55682;51.114;5.882;2023-09-19T11:04:29;2.22;;;1.92;;
68700;SDS011;55682;51.114;5.882;2023-09-19T11:09:48;1.88;;;1.67;;
68700;SDS011;55682;51.114;5.882;2023-09-19T11:12:47;1.83;;;1.61;;
68700;SDS011;55682;51.114;5.882;2023-09-19T11:15:11;2.02;;;1.72;;
68700;SDS011;55682;51.114;5.882;2023-09-19T11:19:08;2.34;;;1.94;;
68700;SDS011;55682;51.114;5.882;2023-09-19T11:21:51;2.33;;;1.99;;
68700;SDS011;55682;51.114;5.882;2023-09-19T11:26:47;2.08;;;1.83;;
68700;SDS011;55682;51.114;5.882;2023-09-19T11:29:29;1.79;;;1.57;;
68700;SDS011;55682;51.114;5.882;2023-09-19T11:31:57;2.05;;;1.79;;
68700;SDS011;55682;51.114;5.882;2023-09-19T11:39:37;1.93;;;1.64;;
68700;SDS011;55682;51.114;5.882;2023-09-19T11:42:40;2.12;;;1.80;;
68700;SDS011;55682;51.114;5.882;2023-09-19T11:45:52;1.91;;;1.59;;
68700;SDS011;55682;51.114;5.882;2023-09-19T11:48:23;2.12;;;1.77;;
68700;SDS011;55682;51.114;5.882;2023-09-19T11:50:52;2.02;;;1.69;;
68700;SDS011;55682;51.114;5.882;2023-09-19T11:53:18;1.89;;;1.59;;
68700;SDS011;55682;51.114;5.882;2023-09-19T11:55:46;1.67;;;1.41;;
68700;SDS011;55682;51.114;5.882;2023-09-19T11:58:12;1.58;;;1.34;;
68700;SDS011;55682;51.114;5.882;2023-09-19T12:00:42;1.87;;;1.62;;
68700;SDS011;55682;51.114;5.882;2023-09-19T12:03:11;1.81;;;1.58;;
68700;SDS011;55682;51.114;5.882;2023-09-19T12:05:39;1.61;;;1.37;;
68700;SDS011;55682;51.114;5.882;2023-09-19T12:08:06;1.61;;;1.36;;
68700;SDS011;55682;51.114;5.882;2023-09-19T12:10:47;1.75;;;1.48;;
68700;SDS011;55682;51.114;5.882;2023-09-19T12:13:17;1.59;;;1.36;;
68700;SDS011;55682;51.114;5.882;2023-09-19T12:15:44;1.42;;;1.21;;
68700;SDS011;55682;51.114;5.882;2023-09-19T12:18:33;1.36;;;1.17;;
68700;SDS011;55682;51.114;5.882;2023-09-19T12:21:01;1.46;;;1.27;;
68700;SDS011;55682;51.114;5.882;2023-09-19T12:23:30;1.49;;;1.30;;
68700;SDS011;55682;51.114;5.882;2023-09-19T12:25:55;1.34;;;1.14;;
68700;SDS011;55682;51.114;5.882;2023-09-19T12:28:25;1.24;;;1.05;;
68700;SDS011;55682;51.114;5.882;2023-09-19T12:30:52;1.54;;;1.30;;
68700;SDS011;55682;51.114;5.882;2023-09-19T12:33:20;1.29;;;1.08;;
68700;SDS011;55682;51.114;5.882;2023-09-19T12:35:46;1.32;;;1.12;;
68700;SDS011;55682;51.114;5.882;2023-09-19T12:38:25;1.33;;;1.10;;
68700;SDS011;55682;51.114;5.882;2023-09-19T12:41:01;1.59;;;1.28;;
68700;SDS011;55682;51.114;5.882;2023-09-19T12:43:30;1.19;;;0.97;;
68700;SDS011;55682;51.114;5.882;2023-09-19T12:46:01;1.34;;;1.11;;
68700;SDS011;55682;51.114;5.882;2023-09-19T12:48:27;1.39;;;1.16;;
68700;SDS011;55682;51.114;5.882;2023-09-19T12:53:37;1.20;;;1.02;;
68700;SDS011;55682;51.114;5.882;2023-09-19T12:56:08;1.20;;;1.01;;
68700;SDS011;55682;51.114;5.882;2023-09-19T12:58:54;1.12;;;0.94;;
68700;SDS011;55682;51.114;5.882;2023-09-19T13:01:24;1.10;;;0.93;;
68700;SDS011;55682;51.114;5.882;2023-09-19T13:04:12;1.16;;;0.97;;
68700;SDS011;55682;51.114;5.882;2023-09-19T13:06:45;1.15;;;0.96;;
68700;SDS011;55682;51.114;5.882;2023-09-19T13:09:14;1.22;;;1.00;;
68700;SDS011;55682;51.114;5.882;2023-09-19T13:11:41;1.19;;;0.99;;
68700;SDS011;55682;51.114;5.882;2023-09-19T13:14:25;1.11;;;0.93;;
68700;SDS011;55682;51.114;5.882;2023-09-19T13:16:58;1.38;;;1.15;;
68700;SDS011;55682;51.114;5.882;2023-09-19T13:19:43;1.22;;;1.01;;
68700;SDS011;55682;51.114;5.882;2023-09-19T13:22:37;1.29;;;1.06;;
68700;SDS011;55682;51.114;5.882;2023-09-19T13:25:19;1.36;;;1.15;;
68700;SDS011;55682;51.114;5.882;2023-09-19T13:27:50;1.27;;;1.10;;
68700;SDS011;55682;51.114;5.882;2023-09-19T13:30:25;1.02;;;0.89;;
68700;SDS011;55682;51.114;5.882;2023-09-19T13:32:52;0.96;;;0.84;;
68700;SDS011;55682;51.114;5.882;2023-09-19T13:35:19;0.92;;;0.82;;
68700;SDS011;55682;51.114;5.882;2023-09-19T13:37:47;0.99;;;0.87;;
68700;SDS011;55682;51.114;5.882;2023-09-19T13:40:16;0.92;;;0.81;;
68700;SDS011;55682;51.114;5.882;2023-09-19T13:42:42;0.84;;;0.74;;
68700;SDS011;55682;51.114;5.882;2023-09-19T13:45:09;0.96;;;0.86;;
68700;SDS011;55682;51.114;5.882;2023-09-19T13:47:37;0.69;;;0.63;;
68700;SDS011;55682;51.114;5.882;2023-09-19T13:50:04;0.71;;;0.64;;
68700;SDS011;55682;51.114;5.882;2023-09-19T13:52:31;0.74;;;0.68;;
68700;SDS011;55682;51.114;5.882;2023-09-19T13:54:57;0.92;;;0.83;;
68700;SDS011;55682;51.114;5.882;2023-09-19T13:57:23;0.99;;;0.89;;
68700;SDS011;55682;51.114;5.882;2023-09-19T13:59:49;0.99;;;0.89;;
68700;SDS011;55682;51.114;5.882;2023-09-19T14:02:16;0.94;;;0.87;;
68700;SDS011;55682;51.114;5.882;2023-09-19T14:04:44;0.85;;;0.78;;
68700;SDS011;55682;51.114;5.882;2023-09-19T14:07:10;0.90;;;0.83;;
68700;SDS011;55682;51.114;5.882;2023-09-19T14:09:36;0.85;;;0.78;;
68700;SDS011;55682;51.114;5.882;2023-09-19T14:12:02;0.81;;;0.73;;
68700;SDS011;55682;51.114;5.882;2023-09-19T14:14:28;0.93;;;0.83;;
68700;SDS011;55682;51.114;5.882;2023-09-19T14:16:53;0.94;;;0.84;;
68700;SDS011;55682;51.114;5.882;2023-09-19T14:19:20;1.05;;;0.94;;
68700;SDS011;55682;51.114;5.882;2023-09-19T14:21:46;0.98;;;0.87;;
68700;SDS011;55682;51.114;5.882;2023-09-19T14:24:16;1.08;;;0.98;;
68700;SDS011;55682;51.114;5.882;2023-09-19T14:26:43;0.95;;;0.86;;
68700;SDS011;55682;51.114;5.882;2023-09-19T14:29:09;1.13;;;1.02;;
68700;SDS011;55682;51.114;5.882;2023-09-19T14:31:37;1.06;;;0.97;;
68700;SDS011;55682;51.114;5.882;2023-09-19T14:34:06;0.96;;;0.88;;
68700;SDS011;55682;51.114;5.882;2023-09-19T14:36:31;1.02;;;0.93;;
68700;SDS011;55682;51.114;5.882;2023-09-19T14:38:58;1.09;;;0.99;;
68700;SDS011;55682;51.114;5.882;2023-09-19T14:41:24;0.83;;;0.75;;
68700;SDS011;55682;51.114;5.882;2023-09-19T14:43:51;0.88;;;0.78;;
68700;SDS011;55682;51.114;5.882;2023-09-19T14:46:17;1.08;;;0.95;;
68700;SDS011;55682;51.114;5.882;2023-09-19T14:48:44;1.11;;;0.97;;
68700;SDS011;55682;51.114;5.882;2023-09-19T14:51:12;1.10;;;0.96;;
68700;SDS011;55682;51.114;5.882;2023-09-19T14:53:39;1.32;;;1.15;;
68700;SDS011;55682;51.114;5.882;2023-09-19T14:56:09;1.21;;;1.06;;
68700;SDS011;55682;51.114;5.882;2023-09-19T14:58:36;1.14;;;0.99;;
68700;SDS011;55682;51.114;5.882;2023-09-19T15:01:11;1.11;;;0.96;;
68700;SDS011;55682;51.114;5.882;2023-09-19T15:03:38;1.14;;;0.97;;
68700;SDS011;55682;51.114;5.882;2023-09-19T15:06:06;0.90;;;0.77;;
68700;SDS011;55682;51.114;5.882;2023-09-19T15:08:45;1.02;;;0.88;;
68700;SDS011;55682;51.114;5.882;2023-09-19T15:11:16;0.98;;;0.86;;
68700;SDS011;55682;51.114;5.882;2023-09-19T15:13:43;1.17;;;1.01;;
68700;SDS011;55682;51.114;5.882;2023-09-19T15:16:10;1.26;;;1.08;;
68700;SDS011;55682;51.114;5.882;2023-09-19T15:18:37;1.12;;;0.96;;
68700;SDS011;55682;51.114;5.882;2023-09-19T15:21:04;1.07;;;0.92;;
68700;SDS011;55682;51.114;5.882;2023-09-19T15:23:31;1.17;;;1.00;;
68700;SDS011;55682;51.114;5.882;2023-09-19T15:26:06;1.23;;;1.03;;
68700;SDS011;55682;51.114;5.882;2023-09-19T15:28:33;1.32;;;1.12;;
68700;SDS011;55682;51.114;5.882;2023-09-19T15:31:09;1.04;;;0.90;;
68700;SDS011;55682;51.114;5.882;2023-09-19T15:33:36;1.06;;;0.93;;
68700;SDS011;55682;51.114;5.882;2023-09-19T15:36:03;0.93;;;0.82;;
68700;SDS011;55682;51.114;5.882;2023-09-19T15:38:30;1.02;;;0.90;;